sensor_id;sensor_type;location;lat;lon;timestamp;P1;durP1;ratioP1;P2;durP2;ratioP2
57345;SDS011;43181;50.974;18.244;2022-08-18T00:00:46;24.30;;;14.50;;
57345;SDS011;43181;50.974;18.244;2022-08-18T00:03:12;23.90;;;15.10;;
57345;SDS011;43181;50.974;18.244;2022-08-18T00:05:38;22.70;;;15.50;;
57345;SDS011;43181;50.974;18.244;2022-08-18T00:08:04;25.00;;;16.70;;
57345;SDS011;43181;50.974;18.244;2022-08-18T00:10:30;26.50;;;16.70;;
57345;SDS011;43181;50.974;18.244;2022-08-18T00:12:56;24.20;;;16.20;;
57345;SDS011;43181;50.974;18.244;2022-08-18T00:15:22;25.20;;;15.80;;
57345;SDS011;43181;50.974;18.244;2022-08-18T00:17:48;24.00;;;14.60;;
57345;SDS011;43181;50.974;18.244;2022-08-18T00:20:19;27.90;;;16.20;;
57345;SDS011;43181;50.974;18.244;2022-08-18T00:22:46;23.90;;;15.40;;
57345;SDS011;43181;50.974;18.244;2022-08-18T00:25:13;26.20;;;16.00;;
57345;SDS011;43181;50.974;18.244;2022-08-18T00:27:39;25.70;;;15.80;;
57345;SDS011;43181;50.974;18.244;2022-08-18T00:30:09;26.40;;;16.40;;
57345;SDS011;43181;50.974;18.244;2022-08-18T00:37:31;27.70;;;16.10;;
57345;SDS011;43181;50.974;18.244;2022-08-18T00:39:57;27.80;;;16.20;;
57345;SDS011;43181;50.974;18.244;2022-08-18T00:42:24;27.40;;;16.80;;
57345;SDS011;43181;50.974;18.244;2022-08-18T00:44:52;27.90;;;16.70;;
57345;SDS011;43181;50.974;18.244;2022-08-18T00:47:19;28.00;;;16.50;;
57345;SDS011;43181;50.974;18.244;2022-08-18T00:49:45;25.80;;;17.00;;
57345;SDS011;43181;50.974;18.244;2022-08-18T00:52:14;25.40;;;17.30;;
57345;SDS011;43181;50.974;18.244;2022-08-18T00:54:40;27.00;;;16.30;;
57345;SDS011;43181;50.974;18.244;2022-08-18T00:57:08;23.30;;;16.00;;
57345;SDS011;43181;50.974;18.244;2022-08-18T00:59:44;26.50;;;16.30;;
57345;SDS011;43181;50.974;18.244;2022-08-18T01:02:19;28.70;;;17.00;;
57345;SDS011;43181;50.974;18.244;2022-08-18T01:04:53;25.00;;;16.50;;
57345;SDS011;43181;50.974;18.244;2022-08-18T01:07:35;25.80;;;15.80;;
57345;SDS011;43181;50.974;18.244;2022-08-18T01:10:05;24.40;;;15.70;;
57345;SDS011;43181;50.974;18.244;2022-08-18T01:12:31;24.40;;;16.80;;
57345;SDS011;43181;50.974;18.244;2022-08-18T01:14:57;28.40;;;17.10;;
57345;SDS011;43181;50.974;18.244;2022-08-18T01:17:24;25.40;;;16.20;;
57345;SDS011;43181;50.974;18.244;2022-08-18T01:20:09;26.10;;;16.90;;
57345;SDS011;43181;50.974;18.244;2022-08-18T01:23:01;30.20;;;17.40;;
57345;SDS011;43181;50.974;18.244;2022-08-18T01:25:29;24.40;;;15.80;;
57345;SDS011;43181;50.974;18.244;2022-08-18T01:28:14;24.00;;;15.20;;
57345;SDS011;43181;50.974;18.244;2022-08-18T01:30:46;28.70;;;16.90;;
57345;SDS011;43181;50.974;18.244;2022-08-18T01:33:14;24.60;;;16.50;;
57345;SDS011;43181;50.974;18.244;2022-08-18T01:35:41;28.30;;;16.50;;
57345;SDS011;43181;50.974;18.244;2022-08-18T01:38:09;26.50;;;16.80;;
57345;SDS011;43181;50.974;18.244;2022-08-18T01:40:37;25.80;;;16.40;;
57345;SDS011;43181;50.974;18.244;2022-08-18T01:43:03;28.10;;;17.50;;
57345;SDS011;43181;50.974;18.244;2022-08-18T01:45:29;28.90;;;17.20;;
57345;SDS011;43181;50.974;18.244;2022-08-18T01:47:59;27.20;;;17.00;;
57345;SDS011;43181;50.974;18.244;2022-08-18T01:50:25;26.20;;;17.30;;
57345;SDS011;43181;50.974;18.244;2022-08-18T01:52:51;27.60;;;16.80;;
57345;SDS011;43181;50.974;18.244;2022-08-18T01:55:18;23.90;;;16.30;;
57345;SDS011;43181;50.974;18.244;2022-08-18T01:57:44;25.80;;;16.70;;
57345;SDS011;43181;50.974;18.244;2022-08-18T02:00:11;26.30;;;15.50;;
57345;SDS011;43181;50.974;18.244;2022-08-18T02:02:39;25.40;;;15.30;;
57345;SDS011;43181;50.974;18.244;2022-08-18T02:05:08;25.90;;;16.20;;
57345;SDS011;43181;50.974;18.244;2022-08-18T02:07:37;25.80;;;16.00;;
57345;SDS011;43181;50.974;18.244;2022-08-18T02:10:04;25.20;;;15.90;;
57345;SDS011;43181;50.974;18.244;2022-08-18T02:12:31;27.00;;;16.20;;
57345;SDS011;43181;50.974;18.244;2022-08-18T02:14:57;26.50;;;16.50;;
57345;SDS011;43181;50.974;18.244;2022-08-18T02:17:23;25.80;;;16.10;;
57345;SDS011;43181;50.974;18.244;2022-08-18T02:19:49;30.00;;;15.90;;
57345;SDS011;43181;50.974;18.244;2022-08-18T02:22:15;26.30;;;15.80;;
57345;SDS011;43181;50.974;18.244;2022-08-18T02:24:43;26.00;;;16.20;;
57345;SDS011;43181;50.974;18.244;2022-08-18T02:27:09;29.00;;;17.70;;
57345;SDS011;43181;50.974;18.244;2022-08-18T02:29:36;28.70;;;17.00;;
57345;SDS011;43181;50.974;18.244;2022-08-18T02:32:02;30.00;;;17.40;;
57345;SDS011;43181;50.974;18.244;2022-08-18T02:34:28;31.00;;;17.60;;
57345;SDS011;43181;50.974;18.244;2022-08-18T02:36:54;29.30;;;17.60;;
57345;SDS011;43181;50.974;18.244;2022-08-18T02:39:20;27.80;;;18.60;;
57345;SDS011;43181;50.974;18.244;2022-08-18T02:41:45;27.30;;;17.50;;
57345;SDS011;43181;50.974;18.244;2022-08-18T02:44:12;27.20;;;16.80;;
57345;SDS011;43181;50.974;18.244;2022-08-18T02:46:37;30.90;;;18.00;;
57345;SDS011;43181;50.974;18.244;2022-08-18T02:49:04;30.00;;;17.90;;
57345;SDS011;43181;50.974;18.244;2022-08-18T02:51:32;32.20;;;18.80;;
57345;SDS011;43181;50.974;18.244;2022-08-18T02:53:58;34.30;;;19.00;;
57345;SDS011;43181;50.974;18.244;2022-08-18T02:56:25;33.80;;;18.70;;
57345;SDS011;43181;50.974;18.244;2022-08-18T02:58:53;30.60;;;17.80;;
57345;SDS011;43181;50.974;18.244;2022-08-18T03:01:20;31.20;;;19.50;;
57345;SDS011;43181;50.974;18.244;2022-08-18T03:03:47;26.50;;;17.20;;
57345;SDS011;43181;50.974;18.244;2022-08-18T03:06:16;30.10;;;17.40;;
57345;SDS011;43181;50.974;18.244;2022-08-18T03:08:42;29.70;;;18.50;;
57345;SDS011;43181;50.974;18.244;2022-08-18T03:11:13;29.20;;;18.90;;
57345;SDS011;43181;50.974;18.244;2022-08-18T03:13:40;35.30;;;19.70;;
57345;SDS011;43181;50.974;18.244;2022-08-18T03:16:06;32.90;;;19.40;;
57345;SDS011;43181;50.974;18.244;2022-08-18T03:18:32;32.60;;;19.30;;
57345;SDS011;43181;50.974;18.244;2022-08-18T03:21:03;35.20;;;19.00;;
57345;SDS011;43181;50.974;18.244;2022-08-18T03:23:31;30.30;;;18.70;;
57345;SDS011;43181;50.974;18.244;2022-08-18T03:25:56;30.10;;;18.00;;
57345;SDS011;43181;50.974;18.244;2022-08-18T03:28:22;31.50;;;18.40;;
57345;SDS011;43181;50.974;18.244;2022-08-18T03:30:47;33.30;;;19.90;;
57345;SDS011;43181;50.974;18.244;2022-08-18T03:33:13;29.00;;;18.00;;
57345;SDS011;43181;50.974;18.244;2022-08-18T03:35:38;31.10;;;19.10;;
57345;SDS011;43181;50.974;18.244;2022-08-18T03:38:05;28.00;;;18.10;;
57345;SDS011;43181;50.974;18.244;2022-08-18T03:40:31;29.50;;;17.30;;
57345;SDS011;43181;50.974;18.244;2022-08-18T03:42:57;30.40;;;18.70;;
57345;SDS011;43181;50.974;18.244;2022-08-18T03:45:22;34.10;;;17.80;;
57345;SDS011;43181;50.974;18.244;2022-08-18T03:47:48;30.80;;;17.20;;
57345;SDS011;43181;50.974;18.244;2022-08-18T03:50:16;30.00;;;18.00;;
57345;SDS011;43181;50.974;18.244;2022-08-18T03:52:44;33.00;;;19.50;;
57345;SDS011;43181;50.974;18.244;2022-08-18T03:55:14;33.00;;;19.50;;
57345;SDS011;43181;50.974;18.244;2022-08-18T03:57:41;31.00;;;18.30;;
57345;SDS011;43181;50.974;18.244;2022-08-18T04:00:07;32.60;;;19.00;;
57345;SDS011;43181;50.974;18.244;2022-08-18T04:02:34;33.40;;;20.10;;
57345;SDS011;43181;50.974;18.244;2022-08-18T04:05:00;31.20;;;18.80;;
57345;SDS011;43181;50.974;18.244;2022-08-18T04:07:26;27.80;;;18.20;;
57345;SDS011;43181;50.974;18.244;2022-08-18T04:09:51;29.80;;;19.70;;
57345;SDS011;43181;50.974;18.244;2022-08-18T04:12:19;31.10;;;19.50;;
57345;SDS011;43181;50.974;18.244;2022-08-18T04:14:45;30.70;;;18.40;;
57345;SDS011;43181;50.974;18.244;2022-08-18T04:17:12;26.60;;;17.40;;
57345;SDS011;43181;50.974;18.244;2022-08-18T04:19:38;28.10;;;17.90;;
57345;SDS011;43181;50.974;18.244;2022-08-18T04:22:04;31.50;;;19.10;;
57345;SDS011;43181;50.974;18.244;2022-08-18T04:24:30;28.00;;;18.10;;
57345;SDS011;43181;50.974;18.244;2022-08-18T04:26:57;33.60;;;19.20;;
57345;SDS011;43181;50.974;18.244;2022-08-18T04:29:23;31.40;;;18.60;;
57345;SDS011;43181;50.974;18.244;2022-08-18T04:31:49;30.50;;;18.20;;
57345;SDS011;43181;50.974;18.244;2022-08-18T04:34:16;30.10;;;18.40;;
57345;SDS011;43181;50.974;18.244;2022-08-18T04:36:44;31.30;;;18.60;;
57345;SDS011;43181;50.974;18.244;2022-08-18T04:39:11;33.30;;;18.80;;
57345;SDS011;43181;50.974;18.244;2022-08-18T04:41:40;30.80;;;18.00;;
57345;SDS011;43181;50.974;18.244;2022-08-18T04:44:08;29.60;;;18.50;;
57345;SDS011;43181;50.974;18.244;2022-08-18T04:46:35;31.80;;;19.10;;
57345;SDS011;43181;50.974;18.244;2022-08-18T04:49:04;31.10;;;19.70;;
57345;SDS011;43181;50.974;18.244;2022-08-18T04:51:30;27.50;;;18.70;;
57345;SDS011;43181;50.974;18.244;2022-08-18T04:53:57;30.50;;;17.40;;
57345;SDS011;43181;50.974;18.244;2022-08-18T04:56:30;31.10;;;18.60;;
57345;SDS011;43181;50.974;18.244;2022-08-18T04:59:06;28.50;;;18.60;;
57345;SDS011;43181;50.974;18.244;2022-08-18T05:01:34;31.60;;;18.50;;
57345;SDS011;43181;50.974;18.244;2022-08-18T05:04:02;27.50;;;18.10;;
57345;SDS011;43181;50.974;18.244;2022-08-18T05:06:28;27.50;;;17.90;;
57345;SDS011;43181;50.974;18.244;2022-08-18T05:08:55;29.40;;;18.00;;
57345;SDS011;43181;50.974;18.244;2022-08-18T05:11:30;26.30;;;17.00;;
57345;SDS011;43181;50.974;18.244;2022-08-18T05:13:59;24.40;;;16.80;;
57345;SDS011;43181;50.974;18.244;2022-08-18T05:16:30;26.10;;;16.50;;
57345;SDS011;43181;50.974;18.244;2022-08-18T05:19:01;26.30;;;17.30;;
57345;SDS011;43181;50.974;18.244;2022-08-18T05:21:28;25.20;;;15.80;;
57345;SDS011;43181;50.974;18.244;2022-08-18T05:23:54;25.40;;;16.70;;
57345;SDS011;43181;50.974;18.244;2022-08-18T05:26:20;29.40;;;19.00;;
57345;SDS011;43181;50.974;18.244;2022-08-18T05:28:46;27.30;;;17.10;;
57345;SDS011;43181;50.974;18.244;2022-08-18T05:31:13;22.80;;;17.00;;
57345;SDS011;43181;50.974;18.244;2022-08-18T05:33:43;26.30;;;16.60;;
57345;SDS011;43181;50.974;18.244;2022-08-18T05:41:36;26.60;;;16.80;;
57345;SDS011;43181;50.974;18.244;2022-08-18T05:44:05;29.90;;;17.50;;
57345;SDS011;43181;50.974;18.244;2022-08-18T05:49:01;25.50;;;15.40;;
57345;SDS011;43181;50.974;18.244;2022-08-18T05:51:30;25.20;;;16.30;;
57345;SDS011;43181;50.974;18.244;2022-08-18T05:54:07;24.50;;;15.50;;
57345;SDS011;43181;50.974;18.244;2022-08-18T05:56:54;30.50;;;17.40;;
57345;SDS011;43181;50.974;18.244;2022-08-18T05:59:30;27.20;;;16.70;;
57345;SDS011;43181;50.974;18.244;2022-08-18T06:05:12;27.70;;;16.60;;
57345;SDS011;43181;50.974;18.244;2022-08-18T06:07:57;25.10;;;17.00;;
57345;SDS011;43181;50.974;18.244;2022-08-18T06:10:25;28.00;;;16.10;;
57345;SDS011;43181;50.974;18.244;2022-08-18T06:12:51;25.20;;;16.50;;
57345;SDS011;43181;50.974;18.244;2022-08-18T06:18:00;23.70;;;16.00;;
57345;SDS011;43181;50.974;18.244;2022-08-18T06:28:20;25.00;;;16.00;;
57345;SDS011;43181;50.974;18.244;2022-08-18T06:38:53;26.60;;;16.20;;
57345;SDS011;43181;50.974;18.244;2022-08-18T06:44:11;23.50;;;15.60;;
57345;SDS011;43181;50.974;18.244;2022-08-18T06:49:26;23.40;;;15.80;;
57345;SDS011;43181;50.974;18.244;2022-08-18T06:52:18;22.30;;;15.50;;
57345;SDS011;43181;50.974;18.244;2022-08-18T06:54:47;21.70;;;13.50;;
57345;SDS011;43181;50.974;18.244;2022-08-18T06:57:24;21.20;;;14.90;;
57345;SDS011;43181;50.974;18.244;2022-08-18T06:59:57;17.80;;;13.70;;
57345;SDS011;43181;50.974;18.244;2022-08-18T07:07:43;18.20;;;14.10;;
57345;SDS011;43181;50.974;18.244;2022-08-18T07:12:38;17.50;;;14.00;;
57345;SDS011;43181;50.974;18.244;2022-08-18T07:15:06;18.90;;;14.40;;
57345;SDS011;43181;50.974;18.244;2022-08-18T07:17:37;18.00;;;13.90;;
57345;SDS011;43181;50.974;18.244;2022-08-18T07:22:58;21.30;;;13.50;;
57345;SDS011;43181;50.974;18.244;2022-08-18T07:25:27;16.10;;;13.60;;
57345;SDS011;43181;50.974;18.244;2022-08-18T07:27:56;13.40;;;11.40;;
57345;SDS011;43181;50.974;18.244;2022-08-18T07:38:16;14.60;;;11.10;;
57345;SDS011;43181;50.974;18.244;2022-08-18T07:44:16;11.90;;;9.90;;
57345;SDS011;43181;50.974;18.244;2022-08-18T07:46:51;13.70;;;10.60;;
57345;SDS011;43181;50.974;18.244;2022-08-18T07:49:23;12.60;;;11.10;;
57345;SDS011;43181;50.974;18.244;2022-08-18T07:51:55;13.00;;;10.00;;
57345;SDS011;43181;50.974;18.244;2022-08-18T08:02:27;13.90;;;10.60;;
57345;SDS011;43181;50.974;18.244;2022-08-18T08:07:58;13.10;;;10.10;;
57345;SDS011;43181;50.974;18.244;2022-08-18T08:13:22;12.60;;;9.80;;
57345;SDS011;43181;50.974;18.244;2022-08-18T08:21:09;14.50;;;10.20;;
57345;SDS011;43181;50.974;18.244;2022-08-18T08:23:53;11.40;;;9.30;;
57345;SDS011;43181;50.974;18.244;2022-08-18T08:26:23;10.30;;;8.90;;
57345;SDS011;43181;50.974;18.244;2022-08-18T08:32:03;11.00;;;9.90;;
57345;SDS011;43181;50.974;18.244;2022-08-18T08:37:08;11.10;;;9.90;;
57345;SDS011;43181;50.974;18.244;2022-08-18T08:39:41;10.20;;;8.70;;
57345;SDS011;43181;50.974;18.244;2022-08-18T08:44:59;14.20;;;10.20;;
57345;SDS011;43181;50.974;18.244;2022-08-18T08:47:34;12.30;;;10.00;;
57345;SDS011;43181;50.974;18.244;2022-08-18T08:50:10;11.90;;;10.50;;
57345;SDS011;43181;50.974;18.244;2022-08-18T08:52:46;10.80;;;9.20;;
57345;SDS011;43181;50.974;18.244;2022-08-18T08:55:18;12.40;;;11.20;;
57345;SDS011;43181;50.974;18.244;2022-08-18T08:58:14;13.30;;;11.60;;
57345;SDS011;43181;50.974;18.244;2022-08-18T09:00:46;15.20;;;12.70;;
57345;SDS011;43181;50.974;18.244;2022-08-18T09:09:07;11.60;;;10.10;;
57345;SDS011;43181;50.974;18.244;2022-08-18T09:22:53;11.30;;;9.50;;
57345;SDS011;43181;50.974;18.244;2022-08-18T09:42:10;15.50;;;10.90;;
57345;SDS011;43181;50.974;18.244;2022-08-18T09:47:10;12.20;;;9.50;;
57345;SDS011;43181;50.974;18.244;2022-08-18T09:54:59;11.10;;;9.10;;
57345;SDS011;43181;50.974;18.244;2022-08-18T09:57:32;11.60;;;10.10;;
57345;SDS011;43181;50.974;18.244;2022-08-18T10:07:49;9.50;;;8.00;;
57345;SDS011;43181;50.974;18.244;2022-08-18T10:10:32;10.70;;;9.00;;
57345;SDS011;43181;50.974;18.244;2022-08-18T10:21:14;9.80;;;8.80;;
57345;SDS011;43181;50.974;18.244;2022-08-18T10:23:56;11.10;;;8.60;;
57345;SDS011;43181;50.974;18.244;2022-08-18T10:26:56;9.80;;;8.50;;
57345;SDS011;43181;50.974;18.244;2022-08-18T10:42:38;7.90;;;7.20;;
57345;SDS011;43181;50.974;18.244;2022-08-18T10:45:12;9.90;;;8.90;;
57345;SDS011;43181;50.974;18.244;2022-08-18T10:47:43;12.80;;;9.30;;
57345;SDS011;43181;50.974;18.244;2022-08-18T10:50:20;11.90;;;9.60;;
57345;SDS011;43181;50.974;18.244;2022-08-18T10:58:22;12.20;;;10.20;;
57345;SDS011;43181;50.974;18.244;2022-08-18T11:04:05;9.40;;;8.20;;
57345;SDS011;43181;50.974;18.244;2022-08-18T11:06:47;9.20;;;8.20;;
57345;SDS011;43181;50.974;18.244;2022-08-18T11:09:21;13.70;;;10.80;;
57345;SDS011;43181;50.974;18.244;2022-08-18T11:11:51;9.90;;;8.90;;
57345;SDS011;43181;50.974;18.244;2022-08-18T11:17:29;27.50;;;20.90;;
57345;SDS011;43181;50.974;18.244;2022-08-18T11:20:06;38.80;;;24.00;;
57345;SDS011;43181;50.974;18.244;2022-08-18T11:22:34;25.00;;;17.00;;
57345;SDS011;43181;50.974;18.244;2022-08-18T11:25:01;24.20;;;17.70;;
57345;SDS011;43181;50.974;18.244;2022-08-18T11:27:29;10.70;;;8.90;;
57345;SDS011;43181;50.974;18.244;2022-08-18T11:30:00;14.30;;;10.00;;
57345;SDS011;43181;50.974;18.244;2022-08-18T11:32:33;12.00;;;10.80;;
57345;SDS011;43181;50.974;18.244;2022-08-18T11:35:03;15.20;;;11.80;;
57345;SDS011;43181;50.974;18.244;2022-08-18T11:42:58;12.80;;;10.50;;
57345;SDS011;43181;50.974;18.244;2022-08-18T11:53:22;11.70;;;10.50;;
57345;SDS011;43181;50.974;18.244;2022-08-18T12:09:19;12.10;;;10.90;;
57345;SDS011;43181;50.974;18.244;2022-08-18T12:11:54;11.90;;;10.30;;
57345;SDS011;43181;50.974;18.244;2022-08-18T12:14:25;10.20;;;8.60;;
57345;SDS011;43181;50.974;18.244;2022-08-18T12:16:53;12.00;;;9.90;;
57345;SDS011;43181;50.974;18.244;2022-08-18T12:19:19;11.30;;;10.20;;
57345;SDS011;43181;50.974;18.244;2022-08-18T12:21:48;10.10;;;9.10;;
57345;SDS011;43181;50.974;18.244;2022-08-18T12:24:23;11.80;;;9.40;;
57345;SDS011;43181;50.974;18.244;2022-08-18T12:26:50;12.30;;;10.00;;
57345;SDS011;43181;50.974;18.244;2022-08-18T12:29:16;12.40;;;9.40;;
57345;SDS011;43181;50.974;18.244;2022-08-18T12:31:43;12.40;;;9.20;;
57345;SDS011;43181;50.974;18.244;2022-08-18T12:34:10;10.20;;;9.20;;
57345;SDS011;43181;50.974;18.244;2022-08-18T12:36:36;13.40;;;9.30;;
57345;SDS011;43181;50.974;18.244;2022-08-18T12:39:02;8.80;;;7.40;;
57345;SDS011;43181;50.974;18.244;2022-08-18T12:41:28;11.00;;;8.40;;
57345;SDS011;43181;50.974;18.244;2022-08-18T12:43:53;9.30;;;8.30;;
57345;SDS011;43181;50.974;18.244;2022-08-18T12:46:19;11.30;;;8.00;;
57345;SDS011;43181;50.974;18.244;2022-08-18T12:48:48;8.90;;;8.00;;
57345;SDS011;43181;50.974;18.244;2022-08-18T12:51:13;9.80;;;8.80;;
57345;SDS011;43181;50.974;18.244;2022-08-18T12:53:39;9.10;;;8.20;;
57345;SDS011;43181;50.974;18.244;2022-08-18T12:56:06;10.00;;;8.50;;
57345;SDS011;43181;50.974;18.244;2022-08-18T12:58:33;9.20;;;8.10;;
57345;SDS011;43181;50.974;18.244;2022-08-18T13:00:59;10.10;;;8.30;;
57345;SDS011;43181;50.974;18.244;2022-08-18T13:03:25;8.70;;;7.80;;
57345;SDS011;43181;50.974;18.244;2022-08-18T13:05:50;8.90;;;8.00;;
57345;SDS011;43181;50.974;18.244;2022-08-18T13:08:20;9.00;;;7.40;;
57345;SDS011;43181;50.974;18.244;2022-08-18T13:10:46;8.80;;;7.70;;
57345;SDS011;43181;50.974;18.244;2022-08-18T13:13:13;10.50;;;7.80;;
57345;SDS011;43181;50.974;18.244;2022-08-18T13:15:40;9.50;;;7.00;;
57345;SDS011;43181;50.974;18.244;2022-08-18T13:18:06;8.90;;;8.00;;
57345;SDS011;43181;50.974;18.244;2022-08-18T13:20:31;10.10;;;7.90;;
57345;SDS011;43181;50.974;18.244;2022-08-18T13:22:58;11.00;;;7.70;;
57345;SDS011;43181;50.974;18.244;2022-08-18T13:25:24;8.60;;;7.60;;
57345;SDS011;43181;50.974;18.244;2022-08-18T13:27:50;8.60;;;7.50;;
57345;SDS011;43181;50.974;18.244;2022-08-18T13:30:16;8.70;;;7.80;;
57345;SDS011;43181;50.974;18.244;2022-08-18T13:32:42;9.50;;;8.00;;
57345;SDS011;43181;50.974;18.244;2022-08-18T13:35:08;10.60;;;8.20;;
57345;SDS011;43181;50.974;18.244;2022-08-18T13:37:35;11.10;;;8.30;;
57345;SDS011;43181;50.974;18.244;2022-08-18T13:40:00;10.00;;;8.10;;
57345;SDS011;43181;50.974;18.244;2022-08-18T13:42:27;9.30;;;7.80;;
57345;SDS011;43181;50.974;18.244;2022-08-18T13:44:54;9.30;;;8.00;;
57345;SDS011;43181;50.974;18.244;2022-08-18T13:47:23;8.70;;;7.90;;
57345;SDS011;43181;50.974;18.244;2022-08-18T13:49:51;10.90;;;7.80;;
57345;SDS011;43181;50.974;18.244;2022-08-18T13:52:17;9.90;;;7.60;;
57345;SDS011;43181;50.974;18.244;2022-08-18T13:54:43;10.00;;;7.90;;
57345;SDS011;43181;50.974;18.244;2022-08-18T13:57:10;8.80;;;7.30;;
57345;SDS011;43181;50.974;18.244;2022-08-18T13:59:36;8.60;;;7.70;;
57345;SDS011;43181;50.974;18.244;2022-08-18T14:02:03;12.00;;;7.50;;
57345;SDS011;43181;50.974;18.244;2022-08-18T14:04:34;10.10;;;7.80;;
57345;SDS011;43181;50.974;18.244;2022-08-18T14:07:02;7.30;;;6.50;;
57345;SDS011;43181;50.974;18.244;2022-08-18T14:09:29;10.00;;;7.20;;
57345;SDS011;43181;50.974;18.244;2022-08-18T14:11:54;8.70;;;7.00;;
57345;SDS011;43181;50.974;18.244;2022-08-18T14:14:20;9.30;;;7.60;;
57345;SDS011;43181;50.974;18.244;2022-08-18T14:16:46;7.20;;;6.50;;
57345;SDS011;43181;50.974;18.244;2022-08-18T14:19:13;9.90;;;7.80;;
57345;SDS011;43181;50.974;18.244;2022-08-18T14:21:57;11.30;;;8.70;;
57345;SDS011;43181;50.974;18.244;2022-08-18T14:24:41;10.90;;;8.20;;
57345;SDS011;43181;50.974;18.244;2022-08-18T14:27:29;11.40;;;8.50;;
57345;SDS011;43181;50.974;18.244;2022-08-18T14:29:59;8.00;;;7.20;;
57345;SDS011;43181;50.974;18.244;2022-08-18T14:32:26;9.80;;;7.30;;
57345;SDS011;43181;50.974;18.244;2022-08-18T14:34:54;9.00;;;7.70;;
57345;SDS011;43181;50.974;18.244;2022-08-18T14:37:22;8.70;;;7.70;;
57345;SDS011;43181;50.974;18.244;2022-08-18T14:39:48;8.50;;;7.40;;
57345;SDS011;43181;50.974;18.244;2022-08-18T14:42:17;18.60;;;9.40;;
57345;SDS011;43181;50.974;18.244;2022-08-18T14:44:45;20.50;;;8.50;;
57345;SDS011;43181;50.974;18.244;2022-08-18T14:47:11;10.20;;;7.70;;
57345;SDS011;43181;50.974;18.244;2022-08-18T14:49:38;9.50;;;7.90;;
57345;SDS011;43181;50.974;18.244;2022-08-18T14:52:04;10.50;;;7.50;;
57345;SDS011;43181;50.974;18.244;2022-08-18T14:54:31;14.40;;;8.50;;
57345;SDS011;43181;50.974;18.244;2022-08-18T14:56:58;11.20;;;8.00;;
57345;SDS011;43181;50.974;18.244;2022-08-18T14:59:26;11.10;;;8.30;;
57345;SDS011;43181;50.974;18.244;2022-08-18T15:01:53;12.80;;;8.60;;
57345;SDS011;43181;50.974;18.244;2022-08-18T15:04:19;8.90;;;7.50;;
57345;SDS011;43181;50.974;18.244;2022-08-18T15:06:49;11.00;;;7.80;;
57345;SDS011;43181;50.974;18.244;2022-08-18T15:09:15;11.30;;;8.20;;
57345;SDS011;43181;50.974;18.244;2022-08-18T15:11:40;10.70;;;8.40;;
57345;SDS011;43181;50.974;18.244;2022-08-18T15:14:06;9.50;;;8.00;;
57345;SDS011;43181;50.974;18.244;2022-08-18T15:16:32;10.50;;;7.90;;
57345;SDS011;43181;50.974;18.244;2022-08-18T15:19:02;11.50;;;8.40;;
57345;SDS011;43181;50.974;18.244;2022-08-18T15:21:28;13.90;;;9.00;;
57345;SDS011;43181;50.974;18.244;2022-08-18T15:24:13;11.00;;;8.60;;
57345;SDS011;43181;50.974;18.244;2022-08-18T15:26:58;10.30;;;8.90;;
57345;SDS011;43181;50.974;18.244;2022-08-18T15:29:25;11.90;;;8.80;;
57345;SDS011;43181;50.974;18.244;2022-08-18T15:31:51;11.40;;;8.30;;
57345;SDS011;43181;50.974;18.244;2022-08-18T15:34:17;12.80;;;8.60;;
57345;SDS011;43181;50.974;18.244;2022-08-18T15:36:43;11.60;;;8.40;;
57345;SDS011;43181;50.974;18.244;2022-08-18T15:39:08;14.10;;;8.90;;
57345;SDS011;43181;50.974;18.244;2022-08-18T15:41:36;10.70;;;8.10;;
57345;SDS011;43181;50.974;18.244;2022-08-18T15:44:05;12.70;;;7.90;;
57345;SDS011;43181;50.974;18.244;2022-08-18T15:46:33;12.20;;;9.30;;
57345;SDS011;43181;50.974;18.244;2022-08-18T15:49:00;11.50;;;9.10;;
57345;SDS011;43181;50.974;18.244;2022-08-18T15:51:29;13.40;;;9.00;;
57345;SDS011;43181;50.974;18.244;2022-08-18T15:53:55;11.40;;;8.80;;
57345;SDS011;43181;50.974;18.244;2022-08-18T15:56:22;10.70;;;8.70;;
57345;SDS011;43181;50.974;18.244;2022-08-18T15:58:48;13.00;;;8.70;;
57345;SDS011;43181;50.974;18.244;2022-08-18T16:01:15;11.40;;;9.10;;
57345;SDS011;43181;50.974;18.244;2022-08-18T16:03:41;13.10;;;8.90;;
57345;SDS011;43181;50.974;18.244;2022-08-18T16:06:08;15.30;;;9.30;;
57345;SDS011;43181;50.974;18.244;2022-08-18T16:08:42;43.20;;;28.40;;
57345;SDS011;43181;50.974;18.244;2022-08-18T16:11:09;25.00;;;17.00;;
57345;SDS011;43181;50.974;18.244;2022-08-18T16:13:37;15.70;;;10.90;;
57345;SDS011;43181;50.974;18.244;2022-08-18T16:16:07;13.60;;;9.10;;
57345;SDS011;43181;50.974;18.244;2022-08-18T16:18:38;11.80;;;9.50;;
57345;SDS011;43181;50.974;18.244;2022-08-18T16:21:04;19.40;;;12.00;;
57345;SDS011;43181;50.974;18.244;2022-08-18T16:23:36;11.30;;;9.30;;
57345;SDS011;43181;50.974;18.244;2022-08-18T16:26:03;22.50;;;16.70;;
57345;SDS011;43181;50.974;18.244;2022-08-18T16:28:30;42.30;;;24.70;;
57345;SDS011;43181;50.974;18.244;2022-08-18T16:30:56;50.60;;;24.60;;
57345;SDS011;43181;50.974;18.244;2022-08-18T16:33:22;58.20;;;27.60;;
57345;SDS011;43181;50.974;18.244;2022-08-18T16:35:47;36.60;;;18.80;;
57345;SDS011;43181;50.974;18.244;2022-08-18T16:38:15;24.50;;;17.30;;
57345;SDS011;43181;50.974;18.244;2022-08-18T16:40:41;12.90;;;10.80;;
57345;SDS011;43181;50.974;18.244;2022-08-18T16:43:07;17.70;;;11.40;;
57345;SDS011;43181;50.974;18.244;2022-08-18T16:45:35;13.80;;;10.20;;
57345;SDS011;43181;50.974;18.244;2022-08-18T16:48:01;15.10;;;10.30;;
57345;SDS011;43181;50.974;18.244;2022-08-18T16:50:27;15.20;;;10.00;;
57345;SDS011;43181;50.974;18.244;2022-08-18T16:52:54;14.40;;;9.20;;
57345;SDS011;43181;50.974;18.244;2022-08-18T16:55:19;11.40;;;8.30;;
57345;SDS011;43181;50.974;18.244;2022-08-18T16:57:45;10.90;;;8.40;;
57345;SDS011;43181;50.974;18.244;2022-08-18T17:00:30;11.10;;;8.00;;
57345;SDS011;43181;50.974;18.244;2022-08-18T17:03:20;12.30;;;8.60;;
57345;SDS011;43181;50.974;18.244;2022-08-18T17:06:09;12.90;;;9.00;;
57345;SDS011;43181;50.974;18.244;2022-08-18T17:08:38;14.60;;;9.20;;
57345;SDS011;43181;50.974;18.244;2022-08-18T17:11:06;12.10;;;9.20;;
57345;SDS011;43181;50.974;18.244;2022-08-18T17:13:33;13.10;;;8.70;;
57345;SDS011;43181;50.974;18.244;2022-08-18T17:15:59;13.90;;;9.30;;
57345;SDS011;43181;50.974;18.244;2022-08-18T17:18:25;14.00;;;9.20;;
57345;SDS011;43181;50.974;18.244;2022-08-18T17:20:51;12.90;;;8.90;;
57345;SDS011;43181;50.974;18.244;2022-08-18T17:23:17;16.30;;;10.10;;
57345;SDS011;43181;50.974;18.244;2022-08-18T17:25:43;12.40;;;8.80;;
57345;SDS011;43181;50.974;18.244;2022-08-18T17:28:11;13.00;;;10.20;;
57345;SDS011;43181;50.974;18.244;2022-08-18T17:30:39;11.50;;;7.40;;
57345;SDS011;43181;50.974;18.244;2022-08-18T17:33:09;14.50;;;9.00;;
57345;SDS011;43181;50.974;18.244;2022-08-18T17:35:41;15.10;;;9.10;;
57345;SDS011;43181;50.974;18.244;2022-08-18T17:38:25;14.40;;;9.40;;
57345;SDS011;43181;50.974;18.244;2022-08-18T17:41:01;13.90;;;9.20;;
57345;SDS011;43181;50.974;18.244;2022-08-18T17:43:28;17.80;;;10.20;;
57345;SDS011;43181;50.974;18.244;2022-08-18T17:46:00;13.10;;;9.50;;